Time;durP1;ratioP1;P1;durP2;ratioP2;P2;SDS_P1;SDS_P2;PMS_P1;PMS_P2;Temp;Humidity;BMP_temperature;BMP_pressure;BME280_temperature;BME280_humidity;BME280_pressure;Samples;Min_cycle;Max_cycle;Signal;HPM_P1;HPM_P2
2021/10/07 00:01:41;;;;;;;12.10;11.60;;;12.20;99.90;;;;;;5051444;28;20448;-75
2021/10/07 00:04:08;;;;;;;12.10;11.60;;;12.20;99.90;;;;;;5052495;28;20455;-76
2021/10/07 00:06:36;;;;;;;12.00;11.40;;;12.20;99.90;;;;;;5052824;28;20523;-75
2021/10/07 00:09:05;;;;;;;12.27;11.60;;;12.30;99.90;;;;;;5052795;28;20460;-76
2021/10/07 00:11:31;;;;;;;11.87;11.27;;;12.30;99.90;;;;;;5051460;28;20483;-76
2021/10/07 00:13:58;;;;;;;11.77;11.27;;;12.30;99.90;;;;;;5051260;28;20456;-75
2021/10/07 00:16:25;;;;;;;11.97;11.47;;;12.30;99.90;;;;;;5051323;28;20471;-76
2021/10/07 00:18:52;;;;;;;11.87;11.27;;;12.30;99.90;;;;;;5051408;28;20467;-75
2021/10/07 00:21:19;;;;;;;12.63;12.03;;;12.30;99.90;;;;;;5051212;28;20472;-76
2021/10/07 00:24:02;;;;;;;12.20;11.70;;;12.30;99.90;;;;;;5051312;28;20618;-74
2021/10/07 00:26:29;;;;;;;12.20;11.60;;;12.20;99.90;;;;;;5051144;28;20574;-75
2021/10/07 00:29:00;;;;;;;12.17;11.57;;;12.20;99.90;;;;;;5050993;28;20455;-76
2021/10/07 00:31:31;;;;;;;11.33;10.90;;;12.20;99.90;;;;;;5051222;28;20452;-77
2021/10/07 00:34:09;;;;;;;11.50;11.00;;;12.30;99.90;;;;;;5050812;28;20452;-77
2021/10/07 00:36:41;;;;;;;11.30;10.80;;;12.30;99.90;;;;;;5050898;28;20934;-76
2021/10/07 00:39:08;;;;;;;11.03;10.73;;;12.30;99.90;;;;;;5051004;28;20460;-75
2021/10/07 00:41:39;;;;;;;12.20;11.50;;;12.30;99.90;;;;;;5051086;28;20468;-76
2021/10/07 00:44:07;;;;;;;11.70;11.20;;;12.30;99.90;;;;;;5051182;28;20445;-76
2021/10/07 00:46:45;;;;;;;11.20;10.70;;;12.30;99.90;;;;;;5050892;28;21020;-75
2021/10/07 00:49:12;;;;;;;12.00;11.50;;;12.30;99.90;;;;;;5050988;28;20444;-76
2021/10/07 00:51:39;;;;;;;11.97;11.30;;;12.30;99.90;;;;;;5051001;28;20444;-76
2021/10/07 00:54:05;;;;;;;11.50;11.00;;;12.30;99.90;;;;;;5051083;28;20452;-76
2021/10/07 00:56:35;;;;;;;12.67;11.97;;;12.30;99.90;;;;;;5050823;28;20455;-76
2021/10/07 00:59:02;;;;;;;11.97;11.20;;;12.30;99.90;;;;;;5050966;28;20455;-76
2021/10/07 01:01:29;;;;;;;11.97;11.27;;;12.30;99.90;;;;;;5050793;28;20869;-75
2021/10/07 01:03:56;;;;;;;12.50;11.90;;;12.30;99.90;;;;;;5050790;28;20455;-75
2021/10/07 01:06:22;;;;;;;13.57;12.50;;;12.30;99.90;;;;;;5050584;28;20553;-75
2021/10/07 01:08:50;;;;;;;13.17;12.37;;;12.40;99.90;;;;;;5050934;28;20933;-75
2021/10/07 01:11:17;;;;;;;12.47;11.87;;;12.40;99.90;;;;;;5050948;28;20460;-75
2021/10/07 01:13:45;;;;;;;13.13;12.33;;;12.40;99.90;;;;;;5050699;28;20448;-76
2021/10/07 01:16:12;;;;;;;12.80;12.10;;;12.40;99.90;;;;;;5050689;28;20447;-76
2021/10/07 01:18:38;;;;;;;12.80;12.00;;;12.40;99.90;;;;;;5050657;28;20478;-76
2021/10/07 01:21:11;;;;;;;12.87;12.07;;;12.40;99.90;;;;;;5050963;28;20545;-77
2021/10/07 01:23:39;;;;;;;12.40;11.70;;;12.40;99.90;;;;;;5050704;28;20463;-77
2021/10/07 01:26:06;;;;;;;12.40;11.80;;;12.40;99.90;;;;;;5050537;28;20483;-76
2021/10/07 01:28:33;;;;;;;12.77;11.90;;;12.40;99.90;;;;;;5050670;28;20452;-76
2021/10/07 01:31:00;;;;;;;12.53;11.93;;;12.50;99.90;;;;;;5050618;28;20448;-75
2021/10/07 01:33:26;;;;;;;12.60;11.70;;;12.50;99.90;;;;;;5050255;28;20537;-75
2021/10/07 01:35:53;;;;;;;12.33;11.53;;;12.50;99.90;;;;;;5050546;28;20443;-76
2021/10/07 01:38:21;;;;;;;12.07;11.63;;;12.40;99.90;;;;;;5050757;28;20448;-75
2021/10/07 01:40:48;;;;;;;13.37;12.53;;;12.40;99.90;;;;;;5050718;28;20445;-74
2021/10/07 01:43:15;;;;;;;13.50;12.87;;;12.40;99.90;;;;;;5050478;28;20949;-74
2021/10/07 01:45:42;;;;;;;13.20;12.60;;;12.40;99.90;;;;;;5050150;28;20480;-75
2021/10/07 01:48:08;;;;;;;13.13;12.43;;;12.40;99.90;;;;;;5050568;28;20503;-75
2021/10/07 01:50:35;;;;;;;13.80;13.07;;;12.40;99.90;;;;;;5053563;28;20451;-76
2021/10/07 01:53:02;;;;;;;13.33;12.73;;;12.40;99.90;;;;;;5054075;28;20843;-77
2021/10/07 01:55:30;;;;;;;12.93;12.33;;;12.30;99.90;;;;;;5053816;28;20452;-75
2021/10/07 01:57:57;;;;;;;14.50;13.50;;;12.30;99.90;;;;;;5054236;28;20739;-75
2021/10/07 02:00:23;;;;;;;12.93;12.33;;;12.30;99.90;;;;;;5053856;28;20456;-74
2021/10/07 02:02:50;;;;;;;14.10;13.13;;;12.30;99.90;;;;;;5053872;28;20451;-75
2021/10/07 02:05:17;;;;;;;13.77;12.83;;;12.40;99.90;;;;;;5053660;28;20479;-74
2021/10/07 02:07:44;;;;;;;12.80;12.20;;;12.40;99.90;;;;;;5053824;28;20455;-74
2021/10/07 02:10:14;;;;;;;13.43;12.43;;;12.40;99.90;;;;;;5053723;28;21153;-75
2021/10/07 02:12:44;;;;;;;13.07;12.57;;;12.40;99.90;;;;;;5053654;28;20455;-75
2021/10/07 02:15:11;;;;;;;13.30;12.73;;;12.40;99.90;;;;;;5053505;28;20942;-74
2021/10/07 02:17:38;;;;;;;13.60;12.90;;;12.50;99.90;;;;;;5053605;28;20447;-74
2021/10/07 02:20:08;;;;;;;13.57;12.97;;;12.40;99.90;;;;;;5053723;28;20825;-74
2021/10/07 02:22:35;;;;;;;13.00;12.40;;;12.50;99.90;;;;;;5053280;28;20483;-74
2021/10/07 02:25:02;;;;;;;12.90;12.40;;;12.50;99.90;;;;;;5053375;28;20502;-74
2021/10/07 02:27:28;;;;;;;13.13;12.63;;;12.50;99.90;;;;;;5053518;28;20873;-76
2021/10/07 02:29:56;;;;;;;12.90;12.30;;;12.40;99.90;;;;;;5053302;28;20463;-76
2021/10/07 02:32:23;;;;;;;13.90;13.17;;;12.40;99.90;;;;;;5053204;28;20456;-77
2021/10/07 02:34:50;;;;;;;14.97;14.10;;;12.30;99.90;;;;;;5053419;28;20444;-74
2021/10/07 02:37:17;;;;;;;15.50;14.70;;;12.40;99.90;;;;;;5053373;28;20471;-75
2021/10/07 02:39:43;;;;;;;17.00;15.73;;;12.40;99.90;;;;;;5053027;28;20476;-74
2021/10/07 02:42:10;;;;;;;14.07;13.17;;;12.50;99.90;;;;;;5052808;28;20492;-76
2021/10/07 02:44:37;;;;;;;13.40;12.70;;;12.40;99.90;;;;;;5053196;28;20452;-74
2021/10/07 02:47:05;;;;;;;13.90;13.20;;;12.40;99.90;;;;;;5053133;28;20499;-75
2021/10/07 02:49:31;;;;;;;14.30;13.60;;;12.50;99.90;;;;;;5052983;28;20452;-76
2021/10/07 02:51:58;;;;;;;12.80;12.20;;;12.40;99.90;;;;;;5052813;28;20463;-76
2021/10/07 02:54:25;;;;;;;13.47;12.87;;;12.30;99.90;;;;;;5052918;28;20969;-75
2021/10/07 02:56:51;;;;;;;13.90;13.30;;;12.30;99.90;;;;;;5052867;28;20865;-74
2021/10/07 02:59:18;;;;;;;13.43;12.80;;;12.40;99.90;;;;;;5052972;28;20444;-75
2021/10/07 03:01:45;;;;;;;13.90;13.30;;;12.40;99.90;;;;;;5053027;28;20451;-76
2021/10/07 03:04:15;;;;;;;14.47;13.67;;;12.40;99.90;;;;;;5052606;28;20453;-77
2021/10/07 03:06:42;;;;;;;13.10;12.50;;;12.30;99.90;;;;;;5052570;28;20490;-75
2021/10/07 03:09:08;;;;;;;12.93;12.23;;;12.30;99.90;;;;;;5052699;28;20448;-75
2021/10/07 03:11:35;;;;;;;13.90;13.30;;;12.30;99.90;;;;;;5052901;28;20444;-75
2021/10/07 03:14:02;;;;;;;14.00;13.40;;;12.30;99.90;;;;;;5052618;28;20456;-75
2021/10/07 03:16:29;;;;;;;13.40;12.80;;;12.30;99.90;;;;;;5052294;28;20474;-75
2021/10/07 03:18:56;;;;;;;14.00;13.37;;;12.40;99.90;;;;;;5052222;28;20996;-76
2021/10/07 03:21:24;;;;;;;14.10;13.43;;;12.50;99.90;;;;;;5052361;28;20472;-76
2021/10/07 03:23:50;;;;;;;14.63;13.73;;;12.40;99.90;;;;;;5052609;28;20452;-75
2021/10/07 03:26:17;;;;;;;15.10;14.30;;;12.50;99.90;;;;;;5052212;28;20505;-76
2021/10/07 03:28:44;;;;;;;14.70;14.00;;;12.40;99.90;;;;;;5052132;28;20444;-75
2021/10/07 03:31:10;;;;;;;14.83;13.97;;;12.40;99.90;;;;;;5052258;28;20452;-74
2021/10/07 03:33:37;;;;;;;14.10;13.43;;;12.40;99.90;;;;;;5052208;28;20452;-74
2021/10/07 03:36:04;;;;;;;13.50;12.70;;;12.40;99.90;;;;;;5052266;28;20498;-74
2021/10/07 03:38:32;;;;;;;14.43;13.73;;;12.50;99.90;;;;;;5052108;28;20475;-75
2021/10/07 03:40:59;;;;;;;14.63;13.80;;;12.40;99.90;;;;;;5051583;28;20965;-75
2021/10/07 03:43:26;;;;;;;14.57;13.87;;;12.40;99.90;;;;;;5052096;28;20454;-75
2021/10/07 03:45:53;;;;;;;15.20;14.37;;;12.40;99.90;;;;;;5051811;28;20488;-76
2021/10/07 03:48:20;;;;;;;15.00;14.20;;;12.40;99.90;;;;;;5051933;28;20498;-77
2021/10/07 03:50:47;;;;;;;15.07;14.17;;;12.40;99.90;;;;;;5051695;28;20448;-76
2021/10/07 03:53:13;;;;;;;14.83;14.00;;;12.40;99.90;;;;;;5051625;28;20456;-75
2021/10/07 03:55:41;;;;;;;14.77;13.90;;;12.40;99.90;;;;;;5051598;28;20945;-76
2021/10/07 03:58:08;;;;;;;15.60;14.83;;;12.50;99.90;;;;;;5051350;28;20865;-75
2021/10/07 04:00:35;;;;;;;14.93;14.03;;;12.50;99.90;;;;;;5051934;28;20444;-75
2021/10/07 04:03:02;;;;;;;15.37;14.27;;;12.40;99.90;;;;;;5051470;28;20456;-77
2021/10/07 04:05:29;;;;;;;15.10;14.27;;;12.40;99.90;;;;;;5051883;28;20452;-76
2021/10/07 04:07:56;;;;;;;15.27;14.47;;;12.50;99.90;;;;;;5051469;28;20494;-76
2021/10/07 04:10:23;;;;;;;15.20;14.50;;;12.60;99.90;;;;;;5051671;28;20460;-75
2021/10/07 04:12:51;;;;;;;16.17;15.03;;;12.50;99.90;;;;;;5051135;28;20856;-76
2021/10/07 04:15:17;;;;;;;14.40;13.70;;;12.50;99.90;;;;;;5051343;28;20509;-76
2021/10/07 04:17:44;;;;;;;15.00;14.20;;;12.50;99.90;;;;;;5051409;28;20444;-75
2021/10/07 04:20:11;;;;;;;15.53;14.63;;;12.50;99.90;;;;;;5051613;28;20452;-76
2021/10/07 04:22:38;;;;;;;15.00;13.90;;;12.50;99.90;;;;;;5051349;28;20480;-76
2021/10/07 04:25:05;;;;;;;15.60;14.80;;;12.50;99.90;;;;;;5051634;28;20461;-76
2021/10/07 04:27:32;;;;;;;14.43;13.60;;;12.50;99.90;;;;;;5051404;28;20488;-76
2021/10/07 04:30:00;;;;;;;14.97;14.10;;;12.40;99.90;;;;;;5051071;28;20470;-76
2021/10/07 04:32:27;;;;;;;15.47;14.57;;;12.40;99.90;;;;;;5051354;28;20459;-76
2021/10/07 04:34:54;;;;;;;14.20;13.60;;;12.40;99.90;;;;;;5051329;28;20448;-75
2021/10/07 04:37:21;;;;;;;14.43;13.73;;;12.40;99.90;;;;;;5051422;28;20455;-75
2021/10/07 04:39:47;;;;;;;14.63;13.87;;;12.40;99.90;;;;;;5055065;28;20505;-74
2021/10/07 04:42:14;;;;;;;15.20;14.37;;;12.40;99.90;;;;;;5054834;28;20492;-74
2021/10/07 04:44:41;;;;;;;14.80;14.10;;;12.30;99.90;;;;;;5054584;28;20819;-74
2021/10/07 04:47:10;;;;;;;15.93;14.70;;;12.40;99.90;;;;;;5050952;28;20495;-74
2021/10/07 04:49:37;;;;;;;14.33;13.57;;;12.40;99.90;;;;;;5050987;28;20451;-75
2021/10/07 04:52:04;;;;;;;14.90;14.10;;;12.40;99.90;;;;;;5051238;28;20448;-74
2021/10/07 04:54:31;;;;;;;14.47;13.70;;;12.40;99.90;;;;;;5050866;28;20467;-75
2021/10/07 04:56:58;;;;;;;13.20;12.60;;;12.40;99.90;;;;;;5050864;28;20444;-75
2021/10/07 04:59:24;;;;;;;14.50;13.17;;;12.40;99.90;;;;;;5050844;28;20471;-77
2021/10/07 05:01:51;;;;;;;14.67;14.00;;;12.40;99.90;;;;;;5051118;28;20523;-77
2021/10/07 05:04:19;;;;;;;14.70;14.00;;;12.40;99.90;;;;;;5050850;28;20459;-78
2021/10/07 05:06:46;;;;;;;15.07;14.30;;;12.40;99.90;;;;;;5050496;28;20490;-78
2021/10/07 05:09:12;;;;;;;14.80;14.00;;;12.40;99.90;;;;;;5050895;28;20452;-75
2021/10/07 05:11:39;;;;;;;14.03;13.43;;;12.40;99.90;;;;;;5050830;28;20478;-78
2021/10/07 05:14:06;;;;;;;14.80;13.77;;;12.50;99.90;;;;;;5050629;28;20448;-75
2021/10/07 05:16:32;;;;;;;14.50;13.80;;;12.50;99.90;;;;;;5050694;28;20447;-74
2021/10/07 05:18:59;;;;;;;14.10;13.40;;;12.60;99.90;;;;;;5050682;28;20439;-74
2021/10/07 05:21:27;;;;;;;13.33;12.63;;;12.60;99.90;;;;;;5050595;28;20468;-75
2021/10/07 05:23:54;;;;;;;15.37;14.50;;;12.60;99.90;;;;;;5051108;28;20452;-75
2021/10/07 05:26:20;;;;;;;14.83;14.20;;;12.60;99.90;;;;;;5054584;28;20510;-75
2021/10/07 05:28:47;;;;;;;14.50;13.80;;;12.60;99.90;;;;;;5054393;28;20498;-75
2021/10/07 05:31:14;;;;;;;14.50;13.60;;;12.70;99.90;;;;;;5054390;28;20933;-75
2021/10/07 05:33:40;;;;;;;14.27;13.43;;;12.70;99.90;;;;;;5054202;28;21212;-75
2021/10/07 05:36:07;;;;;;;13.90;13.30;;;12.70;99.90;;;;;;5054367;28;21060;-75
2021/10/07 05:38:35;;;;;;;15.57;14.43;;;12.60;99.90;;;;;;5054544;28;20447;-75
2021/10/07 05:41:02;;;;;;;14.33;13.53;;;12.60;99.90;;;;;;5053794;28;20460;-74
2021/10/07 05:43:28;;;;;;;14.67;14.07;;;12.60;99.90;;;;;;5054151;28;20448;-73
2021/10/07 05:45:55;;;;;;;15.33;14.53;;;12.60;99.90;;;;;;5054199;28;20452;-73
2021/10/07 05:48:22;;;;;;;15.50;14.57;;;12.60;99.90;;;;;;5054157;28;20491;-74
2021/10/07 05:50:48;;;;;;;14.07;13.13;;;12.60;99.90;;;;;;5054301;28;20459;-74
2021/10/07 05:53:15;;;;;;;14.80;13.90;;;12.70;99.90;;;;;;5053729;28;20459;-72
2021/10/07 05:55:43;;;;;;;14.40;13.70;;;12.70;99.90;;;;;;5053858;28;20529;-73
2021/10/07 05:58:10;;;;;;;15.40;14.70;;;12.80;99.90;;;;;;5053883;28;20443;-73
2021/10/07 06:00:37;;;;;;;14.70;13.93;;;12.80;99.90;;;;;;5054009;28;20443;-73
2021/10/07 06:03:08;;;;;;;15.17;14.37;;;12.90;99.90;;;;;;5053704;28;20452;-74
2021/10/07 06:05:34;;;;;;;15.03;14.23;;;12.80;99.90;;;;;;5053973;28;20448;-73
2021/10/07 06:08:01;;;;;;;15.20;14.30;;;12.90;99.90;;;;;;5053507;28;20506;-73
2021/10/07 06:10:28;;;;;;;14.60;13.77;;;12.80;99.90;;;;;;5053837;28;20456;-73
2021/10/07 06:12:56;;;;;;;14.77;13.90;;;12.80;99.90;;;;;;5053529;28;20456;-76
2021/10/07 06:15:24;;;;;;;14.90;14.20;;;12.90;99.90;;;;;;5053569;28;20967;-75
2021/10/07 06:17:51;;;;;;;13.53;12.80;;;13.00;99.90;;;;;;5053659;28;20463;-71
2021/10/07 06:20:21;;;;;;;13.50;12.90;;;13.00;99.90;;;;;;5053857;28;20440;-74
2021/10/07 06:22:48;;;;;;;14.03;13.23;;;13.00;99.90;;;;;;5053575;28;20468;-73
2021/10/07 06:25:15;;;;;;;14.30;13.50;;;13.10;99.90;;;;;;5051272;28;20546;-74
2021/10/07 06:27:42;;;;;;;14.40;13.70;;;13.20;99.90;;;;;;5051426;28;20490;-73
2021/10/07 06:30:11;;;;;;;13.73;13.03;;;13.20;99.90;;;;;;5053208;28;20459;-73
2021/10/07 06:32:38;;;;;;;13.40;12.80;;;13.30;99.90;;;;;;5053140;28;20456;-73
2021/10/07 06:35:06;;;;;;;17.50;16.20;;;13.30;99.90;;;;;;5052928;28;20521;-73
2021/10/07 06:37:33;;;;;;;13.83;13.13;;;13.40;99.90;;;;;;5053060;28;20456;-73
2021/10/07 06:39:59;;;;;;;14.60;13.90;;;13.40;99.90;;;;;;5052872;28;20461;-73
2021/10/07 06:42:26;;;;;;;13.53;12.93;;;13.50;99.90;;;;;;5052655;28;20526;-73
2021/10/07 06:44:53;;;;;;;14.83;13.67;;;13.50;99.90;;;;;;5052661;28;20456;-73
2021/10/07 06:47:21;;;;;;;14.00;13.30;;;13.50;99.90;;;;;;5053013;28;20491;-72
2021/10/07 06:49:47;;;;;;;14.60;13.93;;;13.40;99.90;;;;;;5053244;28;20462;-73
2021/10/07 06:52:14;;;;;;;14.27;13.30;;;13.60;99.90;;;;;;5052858;28;20448;-73
2021/10/07 06:54:41;;;;;;;14.50;13.70;;;13.60;99.90;;;;;;5052626;28;20448;-73
2021/10/07 06:57:07;;;;;;;14.23;13.53;;;13.60;99.90;;;;;;5052553;28;20938;-73
2021/10/07 06:59:34;;;;;;;13.83;13.13;;;13.70;99.90;;;;;;5052642;28;20934;-74
2021/10/07 07:02:02;;;;;;;13.67;13.07;;;13.90;99.90;;;;;;5052824;28;20525;-74
2021/10/07 07:04:30;;;;;;;13.23;12.53;;;14.10;99.90;;;;;;5052317;28;20854;-74
2021/10/07 07:06:56;;;;;;;14.33;13.20;;;14.20;99.90;;;;;;5052217;28;20487;-75
2021/10/07 07:09:23;;;;;;;18.23;16.60;;;14.20;99.90;;;;;;5052565;28;20463;-75
2021/10/07 07:11:50;;;;;;;15.00;14.07;;;14.30;99.90;;;;;;5052740;28;20550;-75
2021/10/07 07:17:13;;;;;;;15.23;14.37;;;14.40;99.90;;;;;;5108995;27;21028;-79
2021/10/07 07:19:40;;;;;;;14.53;13.50;;;14.40;99.90;;;;;;5108910;28;20532;-76
2021/10/07 07:22:07;;;;;;;14.90;13.90;;;14.40;99.90;;;;;;5108915;28;20461;-75
2021/10/07 07:24:34;;;;;;;14.03;13.33;;;14.50;99.90;;;;;;5109114;28;21089;-80
2021/10/07 07:27:00;;;;;;;14.07;13.27;;;14.50;99.90;;;;;;5108931;28;20440;-79
2021/10/07 07:29:27;;;;;;;14.33;13.43;;;14.60;99.90;;;;;;5109310;28;20449;-80
2021/10/07 07:31:54;;;;;;;16.07;14.67;;;14.70;99.90;;;;;;5108664;28;20456;-80
2021/10/07 07:34:22;;;;;;;14.53;13.60;;;14.80;99.90;;;;;;5108943;28;20445;-76
2021/10/07 07:36:49;;;;;;;14.37;13.20;;;14.90;99.90;;;;;;5108796;28;20576;-77
2021/10/07 07:39:15;;;;;;;14.67;13.60;;;15.20;99.90;;;;;;5108554;28;20494;-75
2021/10/07 07:41:42;;;;;;;14.07;13.00;;;15.20;99.90;;;;;;5108695;28;20824;-75
2021/10/07 07:44:09;;;;;;;17.43;15.73;;;15.30;99.90;;;;;;5106224;28;20445;-73
2021/10/07 07:46:35;;;;;;;15.50;14.63;;;15.40;99.90;;;;;;5108798;28;20468;-75
2021/10/07 07:49:03;;;;;;;15.43;14.63;;;15.50;99.90;;;;;;5108659;28;20454;-75
2021/10/07 07:51:32;;;;;;;16.00;15.00;;;15.50;99.90;;;;;;5108630;28;20502;-75
2021/10/07 07:53:59;;;;;;;16.20;15.33;;;15.30;99.90;;;;;;5108703;28;20480;-74
2021/10/07 07:56:25;;;;;;;16.23;15.13;;;15.10;99.90;;;;;;5106280;28;20481;-79
2021/10/07 07:58:53;;;;;;;15.30;14.37;;;15.00;99.90;;;;;;5108439;28;20453;-75
2021/10/07 08:01:20;;;;;;;15.53;14.60;;;15.00;99.90;;;;;;5105546;28;20453;-75
2021/10/07 08:03:46;;;;;;;16.40;15.40;;;15.00;99.90;;;;;;5108213;28;20453;-75
2021/10/07 08:06:13;;;;;;;16.93;15.37;;;15.00;99.90;;;;;;5107998;28;20958;-74
2021/10/07 08:08:41;;;;;;;17.37;16.17;;;14.90;99.90;;;;;;5107862;28;20457;-75
2021/10/07 08:11:08;;;;;;;16.90;15.80;;;14.90;99.90;;;;;;5108148;28;20449;-74
2021/10/07 08:13:35;;;;;;;16.93;15.83;;;14.90;99.90;;;;;;5108072;28;20960;-75
2021/10/07 08:16:01;;;;;;;16.93;16.03;;;15.00;99.90;;;;;;5107804;28;20497;-74
2021/10/07 08:18:28;;;;;;;18.03;16.90;;;15.00;99.90;;;;;;5107877;28;20448;-75
2021/10/07 08:20:55;;;;;;;17.97;16.83;;;14.80;99.90;;;;;;5107818;28;22194;-74
2021/10/07 08:23:25;;;;;;;17.97;16.83;;;15.10;99.90;;;;;;5107877;28;20544;-74
2021/10/07 08:25:53;;;;;;;17.53;16.23;;;15.50;99.90;;;;;;5107908;28;20450;-74
2021/10/07 08:28:21;;;;;;;17.20;16.07;;;15.70;99.90;;;;;;5095520;28;20550;-74
2021/10/07 08:30:49;;;;;;;18.63;17.63;;;15.80;99.90;;;;;;5094361;28;20457;-74
2021/10/07 08:33:17;;;;;;;17.93;16.83;;;16.20;99.90;;;;;;5094060;28;20833;-74
2021/10/07 08:35:43;;;;;;;21.27;19.10;;;16.30;99.90;;;;;;5093955;28;20478;-74
2021/10/07 08:38:12;;;;;;;18.60;17.50;;;16.50;99.90;;;;;;5094002;28;20467;-73
2021/10/07 08:40:38;;;;;;;18.70;17.50;;;16.60;99.90;;;;;;5094011;28;20577;-73
2021/10/07 08:43:06;;;;;;;20.03;18.63;;;16.60;99.90;;;;;;5093957;28;20446;-74
2021/10/07 08:45:33;;;;;;;19.70;18.50;;;16.60;99.90;;;;;;5093896;28;20955;-75
2021/10/07 08:48:00;;;;;;;19.07;18.07;;;17.10;99.90;;;;;;5093605;28;20500;-74
2021/10/07 08:50:27;;;;;;;19.90;18.40;;;17.00;99.90;;;;;;5093500;28;20958;-74
2021/10/07 08:52:54;;;;;;;17.60;16.60;;;17.20;99.90;;;;;;5093425;28;20936;-73
2021/10/07 08:55:21;;;;;;;18.33;17.37;;;17.30;99.90;;;;;;5093258;28;20454;-73
2021/10/07 08:57:48;;;;;;;18.40;17.40;;;17.60;99.90;;;;;;5093626;28;20816;-73
2021/10/07 09:00:17;;;;;;;19.47;17.97;;;17.90;99.90;;;;;;5093454;28;20549;-74
2021/10/07 09:02:44;;;;;;;20.40;18.93;;;18.10;99.90;;;;;;5093260;28;20449;-75
2021/10/07 09:05:13;;;;;;;22.40;20.87;;;17.90;99.90;;;;;;5093498;28;20457;-75
2021/10/07 09:07:54;;;;;;;20.73;19.13;;;17.70;99.90;;;;;;5093297;28;20442;-74
2021/10/07 09:10:20;;;;;;;18.47;17.37;;;17.00;99.90;;;;;;5093406;28;20552;-75
2021/10/07 09:13:05;;;;;;;17.70;16.40;;;17.00;99.90;;;;;;5093606;28;20446;-75
2021/10/07 09:15:33;;;;;;;19.00;17.87;;;17.10;99.90;;;;;;5092811;28;20474;-75
2021/10/07 09:18:05;;;;;;;19.80;18.60;;;17.20;99.90;;;;;;5092806;28;20442;-74
2021/10/07 09:20:33;;;;;;;19.37;18.27;;;16.80;99.90;;;;;;5093050;28;20442;-75
2021/10/07 09:23:05;;;;;;;18.57;17.60;;;16.60;99.90;;;;;;5093314;28;20462;-75
2021/10/07 09:25:49;;;;;;;21.60;20.00;;;16.60;99.90;;;;;;5093496;28;20472;-76
2021/10/07 09:28:15;;;;;;;16.67;15.70;;;16.50;99.90;;;;;;5094661;28;20437;-75
2021/10/07 09:30:43;;;;;;;18.23;17.10;;;16.30;99.90;;;;;;5094945;28;20496;-75
2021/10/07 09:33:10;;;;;;;17.83;16.70;;;16.30;99.90;;;;;;5093996;28;20446;-75
2021/10/07 09:35:37;;;;;;;17.50;16.47;;;16.20;99.90;;;;;;5094096;28;20794;-74
2021/10/07 09:38:06;;;;;;;17.50;16.47;;;16.10;99.90;;;;;;5093793;28;20853;-75
2021/10/07 09:40:33;;;;;;;17.70;16.70;;;15.90;99.90;;;;;;5093709;28;20442;-74
2021/10/07 09:43:02;;;;;;;16.43;15.57;;;16.20;99.90;;;;;;5093476;28;20446;-75
2021/10/07 09:45:30;;;;;;;16.07;15.17;;;16.60;99.90;;;;;;5093012;28;20951;-75
2021/10/07 09:48:00;;;;;;;17.27;16.00;;;16.80;99.90;;;;;;5092977;28;20450;-74
2021/10/07 09:50:29;;;;;;;19.13;17.63;;;16.70;99.90;;;;;;5092527;28;21125;-74
2021/10/07 09:53:01;;;;;;;18.03;17.03;;;16.70;99.90;;;;;;5093180;28;20535;-76
2021/10/07 09:55:33;;;;;;;15.80;15.00;;;17.10;99.90;;;;;;5092580;28;20486;-74
2021/10/07 09:58:01;;;;;;;16.47;15.33;;;17.10;99.90;;;;;;5092707;28;20453;-76
2021/10/07 10:00:31;;;;;;;14.30;13.63;;;17.00;99.90;;;;;;5092476;28;20469;-77
2021/10/07 10:03:01;;;;;;;15.70;14.60;;;17.20;99.90;;;;;;5092679;28;20466;-76
2021/10/07 10:05:30;;;;;;;16.13;15.43;;;17.60;99.90;;;;;;5093069;28;20856;-77
2021/10/07 10:07:56;;;;;;;16.30;15.30;;;17.60;99.90;;;;;;5092322;28;20438;-75
2021/10/07 10:10:23;;;;;;;14.80;14.13;;;17.50;99.90;;;;;;5092061;28;20454;-75
2021/10/07 10:12:51;;;;;;;15.63;14.67;;;17.70;99.90;;;;;;5092163;28;20445;-76
2021/10/07 10:15:20;;;;;;;15.70;14.83;;;17.40;99.90;;;;;;5091576;28;20486;-75
2021/10/07 10:17:48;;;;;;;16.20;15.30;;;17.80;99.90;;;;;;5092048;28;20482;-75
2021/10/07 10:20:22;;;;;;;16.07;15.07;;;18.10;99.90;;;;;;5092082;28;20453;-76
2021/10/07 10:22:53;;;;;;;15.63;14.73;;;17.80;99.90;;;;;;5091979;28;20488;-75
2021/10/07 10:25:20;;;;;;;16.60;15.70;;;17.80;99.90;;;;;;5092057;28;20442;-76
2021/10/07 10:27:52;;;;;;;16.40;15.43;;;17.90;99.90;;;;;;5091897;28;20939;-76
2021/10/07 10:30:44;;;;;;;15.23;14.37;;;17.90;99.90;;;;;;5092050;28;20453;-76
2021/10/07 10:33:28;;;;;;;16.07;15.07;;;18.20;99.90;;;;;;5087562;28;20822;-76
2021/10/07 10:35:57;;;;;;;14.43;13.73;;;18.10;99.90;;;;;;5091768;28;20445;-75
2021/10/07 10:38:24;;;;;;;14.93;13.80;;;17.80;99.90;;;;;;5091540;28;20856;-75
2021/10/07 10:40:51;;;;;;;14.97;14.17;;;17.80;99.90;;;;;;5091721;28;20454;-75
2021/10/07 10:43:34;;;;;;;14.70;13.90;;;17.90;99.90;;;;;;5091812;28;20846;-75
2021/10/07 10:46:17;;;;;;;14.53;13.53;;;18.20;99.90;;;;;;5091557;28;20485;-75
2021/10/07 10:49:00;;;;;;;14.87;14.07;;;18.10;99.90;;;;;;5091562;28;20450;-75
2021/10/07 10:51:36;;;;;;;14.80;14.03;;;18.10;99.90;;;;;;5091261;28;20812;-75
2021/10/07 10:54:09;;;;;;;15.47;14.67;;;18.00;99.90;;;;;;5091476;28;20453;-75
2021/10/07 10:56:55;;;;;;;15.10;14.37;;;18.30;99.90;;;;;;5091691;28;20907;-75
2021/10/07 10:59:23;;;;;;;14.40;13.70;;;18.60;99.90;;;;;;5091523;28;20451;-74
2021/10/07 11:02:26;;;;;;;15.30;14.50;;;18.60;99.90;;;;;;5091503;28;20469;-74
2021/10/07 11:04:55;;;;;;;14.80;14.20;;;18.70;99.00;;;;;;5059053;28;20515;-74
2021/10/07 11:07:27;;;;;;;14.50;13.83;;;18.40;99.60;;;;;;5091428;28;20445;-73
2021/10/07 11:10:03;;;;;;;16.23;15.37;;;18.60;99.40;;;;;;5091424;28;20482;-75
2021/10/07 11:12:48;;;;;;;14.53;13.83;;;19.00;99.10;;;;;;5090885;28;20915;-75
2021/10/07 11:15:18;;;;;;;13.97;13.17;;;19.40;98.80;;;;;;5090732;28;20532;-74
2021/10/07 11:17:46;;;;;;;15.27;14.33;;;19.50;97.50;;;;;;5091065;28;20486;-75
2021/10/07 11:20:15;;;;;;;14.30;13.80;;;19.40;97.40;;;;;;5091133;28;20454;-74
2021/10/07 11:23:00;;;;;;;15.60;14.90;;;18.80;98.20;;;;;;5091020;28;20471;-74
2021/10/07 11:25:28;;;;;;;14.30;13.43;;;18.70;99.10;;;;;;5090868;28;20461;-74
2021/10/07 11:27:55;;;;;;;16.37;15.37;;;18.40;99.90;;;;;;5090982;28;20952;-75
2021/10/07 11:30:24;;;;;;;15.30;14.60;;;18.30;99.90;;;;;;5091230;28;20454;-75
2021/10/07 11:32:51;;;;;;;14.73;13.53;;;17.80;99.90;;;;;;5090982;28;20537;-75
2021/10/07 11:35:21;;;;;;;13.60;13.00;;;17.70;99.90;;;;;;5091227;28;20457;-74
2021/10/07 11:38:04;;;;;;;14.03;13.30;;;17.80;99.90;;;;;;5091163;28;20513;-74
2021/10/07 11:40:38;;;;;;;13.60;13.00;;;17.70;99.90;;;;;;5091161;28;20461;-74
2021/10/07 11:43:07;;;;;;;15.30;14.50;;;17.70;99.90;;;;;;5091459;28;20457;-74
2021/10/07 11:45:36;;;;;;;14.97;14.20;;;17.70;99.90;;;;;;5090733;28;20821;-74
2021/10/07 11:48:07;;;;;;;14.57;13.77;;;17.80;99.90;;;;;;5090668;28;20457;-73
2021/10/07 11:50:37;;;;;;;13.83;13.27;;;17.90;99.90;;;;;;5090831;28;20453;-74
2021/10/07 11:53:06;;;;;;;12.17;11.67;;;17.80;99.90;;;;;;5090827;28;20918;-74
2021/10/07 11:55:33;;;;;;;14.10;13.50;;;18.20;99.80;;;;;;5090825;28;20446;-73
2021/10/07 11:58:01;;;;;;;13.90;13.40;;;18.30;99.70;;;;;;5090474;28;20486;-74
2021/10/07 12:00:41;;;;;;;13.63;12.90;;;18.60;99.70;;;;;;5086400;28;20470;-74
2021/10/07 12:03:22;;;;;;;13.17;12.57;;;19.00;98.90;;;;;;5081659;28;20447;-74
2021/10/07 12:05:53;;;;;;;14.27;13.60;;;19.10;98.70;;;;;;5087860;28;20446;-76
2021/10/07 12:08:23;;;;;;;14.53;13.87;;;19.40;98.00;;;;;;5094483;28;20541;-74
2021/10/07 12:10:53;;;;;;;13.97;13.37;;;19.60;97.90;;;;;;5085743;28;20449;-74
2021/10/07 12:13:21;;;;;;;14.07;13.47;;;19.60;96.80;;;;;;5094417;28;20442;-73
2021/10/07 12:15:55;;;;;;;14.33;13.70;;;19.50;97.20;;;;;;5094116;28;20552;-73
2021/10/07 12:18:24;;;;;;;14.27;13.57;;;19.30;97.40;;;;;;5082915;28;20536;-73
2021/10/07 12:21:11;;;;;;;14.07;13.47;;;19.90;97.00;;;;;;5073903;28;21067;-73
2021/10/07 12:23:57;;;;;;;14.30;13.70;;;19.60;97.00;;;;;;5074055;28;20446;-74
2021/10/07 12:26:27;;;;;;;13.73;13.10;;;20.00;96.80;;;;;;5074002;28;20464;-73
2021/10/07 12:28:54;;;;;;;12.87;12.40;;;19.80;95.80;;;;;;5073813;28;20450;-73
2021/10/07 12:31:22;;;;;;;14.10;13.60;;;20.10;95.50;;;;;;5073557;28;20443;-73
2021/10/07 12:33:55;;;;;;;14.10;13.33;;;20.00;95.50;;;;;;5073746;28;20936;-74
2021/10/07 12:36:22;;;;;;;14.43;13.93;;;20.10;95.60;;;;;;5073644;28;20459;-74
2021/10/07 12:38:50;;;;;;;13.00;12.30;;;20.40;95.60;;;;;;5073680;28;20447;-73